Time;durP1;ratioP1;P1;durP2;ratioP2;P2;SDS_P1;SDS_P2;PMS_P1;PMS_P2;Temp;Humidity;BMP_temperature;BMP_pressure;BME280_temperature;BME280_humidity;BME280_pressure;Samples;Min_cycle;Max_cycle;Signal;HPM_P1;HPM_P2
2021/04/21 00:01:56;;;;;;;12.65;10.03;;;;;;;8.37;72.02;99685.83;1783971;80;21053;-53
2021/04/21 00:04:26;;;;;;;15.10;11.48;;;;;;;8.34;72.23;99688.57;1783927;80;21033;-53
2021/04/21 00:06:53;;;;;;;14.83;10.93;;;;;;;8.30;72.14;99686.11;1784097;79;21008;-53
2021/04/21 00:09:20;;;;;;;15.63;11.83;;;;;;;8.28;72.29;99694.59;1783961;80;21202;-53
2021/04/21 00:11:49;;;;;;;17.25;11.78;;;;;;;8.27;72.33;99688.87;1783959;79;21021;-54
2021/04/21 00:14:22;;;;;;;15.75;10.78;;;;;;;8.25;72.42;99696.52;1783981;80;21029;-54
2021/04/21 00:16:56;;;;;;;14.40;11.10;;;;;;;8.23;72.48;99691.05;1784083;80;21631;-53
2021/04/21 00:19:24;;;;;;;15.13;10.65;;;;;;;8.23;72.43;99694.63;1784040;80;21021;-53
2021/04/21 00:21:52;;;;;;;13.83;10.68;;;;;;;8.23;72.47;99693.25;1784042;79;21193;-54
2021/04/21 00:24:19;;;;;;;15.83;11.22;;;;;;;8.21;72.40;99690.52;1783918;79;21112;-53
2021/04/21 00:26:47;;;;;;;19.70;11.97;;;;;;;8.19;72.61;99696.80;1798506;79;21012;-54
2021/04/21 00:29:16;;;;;;;14.68;10.80;;;;;;;8.19;72.50;99696.27;1779528;80;21045;-53
2021/04/21 00:31:47;;;;;;;13.60;11.55;;;;;;;8.16;72.56;99696.82;1779649;80;21487;-54
2021/04/21 00:34:18;;;;;;;15.35;11.28;;;;;;;8.13;72.60;99698.72;1779516;80;21256;-53
2021/04/21 00:36:49;;;;;;;14.25;11.57;;;;;;;8.10;72.66;99691.06;1779221;79;21025;-53
2021/04/21 00:39:16;;;;;;;13.88;11.10;;;;;;;8.08;72.76;99695.44;1778926;80;21041;-53
2021/04/21 00:42:13;;;;;;;19.17;11.73;;;;;;;8.08;72.81;99698.18;1778964;80;21029;-54
2021/04/21 00:44:45;;;;;;;15.00;12.05;;;;;;;8.08;72.82;99705.57;1778360;80;21037;-54
2021/04/21 00:47:26;;;;;;;14.80;11.28;;;;;;;8.04;72.86;99699.81;1777892;80;21530;-53
2021/04/21 00:50:19;;;;;;;14.83;11.10;;;;;;;8.03;72.95;99706.93;1777785;80;21046;-54
2021/04/21 00:52:53;;;;;;;14.70;10.98;;;;;;;8.03;72.88;99708.30;1779200;80;21132;-54
2021/04/21 00:55:35;;;;;;;16.60;12.45;;;;;;;8.02;72.98;99703.94;1754669;80;21061;-53
2021/04/21 00:58:10;;;;;;;13.83;11.10;;;;;;;8.02;73.11;99701.21;1754910;80;21741;-54
2021/04/21 01:00:44;;;;;;;15.10;12.03;;;;;;;8.01;73.12;99700.92;1754875;80;21260;-54
2021/04/21 01:03:21;;;;;;;15.68;11.68;;;;;;;7.99;73.04;99708.05;1778913;80;21061;-54
2021/04/21 01:06:03;;;;;;;17.62;11.88;;;;;;;7.95;72.99;99707.75;1754874;80;21041;-53
2021/04/21 01:08:50;;;;;;;16.87;12.25;;;;;;;7.93;73.14;99709.95;1760508;81;21277;-53
2021/04/21 01:11:50;;;;;;;15.28;11.78;;;;;;;7.94;73.12;99708.88;1779229;80;21014;-53
2021/04/21 01:14:23;;;;;;;15.18;12.33;;;;;;;7.96;73.09;99709.96;1730301;82;22263;-53
2021/04/21 01:20:04;;;;;;;17.75;12.58;;;;;;;7.96;73.16;99704.49;1846259;76;22193;-53
2021/04/21 01:23:00;;;;;;;17.00;12.47;;;;;;;7.86;73.14;99706.67;1816162;79;20985;-53
2021/04/21 01:25:42;;;;;;;15.15;12.13;;;;;;;7.82;73.36;99706.94;1816510;79;21180;-53
2021/04/21 01:28:13;;;;;;;14.45;11.05;;;;;;;7.77;73.44;99709.66;1804460;79;21017;-53
2021/04/21 01:30:45;;;;;;;17.48;11.88;;;;;;;7.72;73.71;99711.04;1816418;79;28311;-53
2021/04/21 01:33:19;;;;;;;17.00;11.95;;;;;;;7.70;73.78;99708.58;1816247;79;21010;-53
2021/04/21 01:36:03;;;;;;;18.50;13.35;;;;;;;7.72;73.83;99715.14;1809331;78;21025;-53
2021/04/21 01:38:31;;;;;;;17.62;12.63;;;;;;;7.71;73.83;99707.47;1784067;80;21190;-53
2021/04/21 01:41:07;;;;;;;16.02;12.00;;;;;;;7.69;73.88;99713.77;1784069;80;20958;-54
2021/04/21 01:43:42;;;;;;;17.07;13.55;;;;;;;7.65;73.85;99714.03;1783810;80;20970;-54
2021/04/21 01:46:12;;;;;;;18.23;15.18;;;;;;;7.58;74.07;99710.73;1770499;80;21036;-54
2021/04/21 01:48:41;;;;;;;21.85;15.40;;;;;;;7.54;74.29;99721.38;1784036;80;20998;-54
2021/04/21 01:51:32;;;;;;;20.68;15.15;;;;;;;7.46;74.52;99713.73;1784055;80;21367;-54
2021/04/21 01:54:13;;;;;;;15.65;12.35;;;;;;;7.46;74.65;99718.36;1748818;80;21709;-54
2021/04/21 01:56:53;;;;;;;16.62;12.30;;;;;;;7.45;74.66;99723.02;1784188;80;21002;-54
2021/04/21 01:59:43;;;;;;;16.82;14.05;;;;;;;7.44;74.84;99722.20;1784069;80;21013;-54
2021/04/21 02:02:33;;;;;;;17.62;12.70;;;;;;;7.40;74.88;99719.73;1784114;80;20974;-54
2021/04/21 02:05:23;;;;;;;23.10;13.90;;;;;;;7.35;75.02;99721.63;1784007;80;21248;-54
2021/04/21 02:08:07;;;;;;;15.75;12.25;;;;;;;7.30;75.18;99716.14;1783980;80;21049;-53
2021/04/21 02:11:06;;;;;;;17.48;14.78;;;;;;;7.28;75.26;99715.59;1783628;80;20985;-53
2021/04/21 02:14:05;;;;;;;17.52;14.25;;;;;;;7.26;75.41;99716.68;1758374;80;21568;-53
2021/04/21 02:17:08;;;;;;;16.55;13.98;;;;;;;7.23;75.55;99719.95;1783429;80;21033;-53
2021/04/21 02:19:49;;;;;;;18.82;14.35;;;;;;;7.23;75.65;99716.38;1731625;80;21396;-53
2021/04/21 02:22:40;;;;;;;20.10;13.83;;;;;;;7.25;75.72;99719.69;1789717;80;21036;-53
2021/04/21 02:25:28;;;;;;;16.23;13.38;;;;;;;7.23;75.69;99713.13;1789924;80;21029;-53
2021/04/21 02:28:24;;;;;;;17.37;12.65;;;;;;;7.21;75.82;99725.41;1774313;80;21099;-53
2021/04/21 02:31:41;;;;;;;15.15;11.97;;;;;;;7.21;75.86;99722.67;1789323;80;21579;-53
2021/04/21 02:34:41;;;;;;;15.45;11.57;;;;;;;7.21;75.94;99719.94;1789004;80;21621;-53
2021/04/21 02:37:18;;;;;;;15.70;11.63;;;;;;;7.20;76.01;99724.59;1789206;78;21048;-53
2021/04/21 02:39:57;;;;;;;15.00;12.07;;;;;;;7.19;76.02;99722.94;1789566;80;21029;-53
2021/04/21 02:42:43;;;;;;;13.25;11.85;;;;;;;7.18;76.05;99721.29;1789378;79;20993;-53
2021/04/21 02:45:49;;;;;;;14.10;11.22;;;;;;;7.17;76.14;99725.10;1789278;80;21088;-53
2021/04/21 02:49:06;;;;;;;17.00;12.80;;;;;;;7.19;76.21;99723.50;1789252;80;23492;-53
2021/04/21 02:52:06;;;;;;;15.10;11.20;;;;;;;7.16;76.13;99730.31;1788427;80;21029;-53
2021/04/21 02:54:54;;;;;;;20.35;12.73;;;;;;;7.16;76.28;99728.95;1789164;80;20973;-53
2021/04/21 02:57:53;;;;;;;16.15;12.13;;;;;;;7.20;76.29;99740.98;1788411;80;21583;-54
2021/04/21 03:00:27;;;;;;;18.20;12.93;;;;;;;7.21;76.06;99734.41;1789310;79;21621;-53
2021/04/21 03:03:26;;;;;;;16.37;12.37;;;;;;;7.17;76.04;99740.13;1789195;80;21189;-53
2021/04/21 03:06:03;;;;;;;17.75;12.55;;;;;;;7.17;76.13;99736.58;1788938;79;21028;-53
2021/04/21 03:08:40;;;;;;;16.87;12.53;;;;;;;7.14;76.04;99740.66;1789266;80;21005;-53
2021/04/21 03:11:20;;;;;;;16.37;11.90;;;;;;;7.18;76.12;99746.42;1789327;79;21594;-53
2021/04/21 03:14:13;;;;;;;19.55;13.68;;;;;;;7.20;76.04;99743.71;1789401;80;21052;-53
2021/04/21 03:16:55;;;;;;;17.82;11.57;;;;;;;7.18;76.10;99750.52;1789167;80;21200;-53
2021/04/21 03:19:29;;;;;;;15.98;12.28;;;;;;;7.18;76.27;99752.70;1785554;79;20990;-54
2021/04/21 03:22:13;;;;;;;14.90;11.28;;;;;;;7.21;76.28;99755.45;1775954;80;21060;-53
2021/04/21 03:24:36;;;;;;;23.40;12.68;;;;;;;7.22;76.25;99752.45;1782893;80;21033;-54
2021/04/21 03:27:06;;;;;;;16.57;12.93;;;;;;;7.22;76.17;99762.00;1783379;80;21041;-53
2021/04/21 03:29:47;;;;;;;14.43;11.00;;;;;;;7.21;76.16;99767.18;1783505;80;21328;-54
2021/04/21 03:32:24;;;;;;;29.70;12.85;;;;;;;7.19;76.23;99755.72;1783485;80;21020;-54
2021/04/21 03:34:51;;;;;;;20.20;12.75;;;;;;;7.20;76.45;99771.02;1783439;79;20970;-55
2021/04/21 03:37:42;;;;;;;15.65;12.85;;;;;;;7.22;76.39;99770.75;1753082;80;20974;-55
2021/04/21 03:40:11;;;;;;;16.87;12.75;;;;;;;7.22;76.35;99777.03;1782307;80;21164;-54
2021/04/21 03:42:38;;;;;;;18.82;12.95;;;;;;;7.24;76.40;99780.86;1783252;80;21192;-54
2021/04/21 03:45:09;;;;;;;18.17;12.63;;;;;;;7.25;76.46;99787.41;1783236;80;21037;-54
2021/04/21 03:47:36;;;;;;;18.80;12.93;;;;;;;7.24;76.51;99789.89;1783354;80;21272;-54
2021/04/21 03:50:07;;;;;;;25.10;13.80;;;;;;;7.22;76.59;99798.88;1783445;80;21029;-54
2021/04/21 03:52:38;;;;;;;16.97;13.08;;;;;;;7.24;76.52;99793.98;1783445;80;21120;-53
2021/04/21 03:55:07;;;;;;;21.70;14.18;;;;;;;7.25;76.55;99795.61;1783474;80;21365;-54
2021/04/21 03:57:38;;;;;;;20.85;14.68;;;;;;;7.23;76.42;99801.05;1752908;80;21049;-53
2021/04/21 04:00:07;;;;;;;16.57;13.25;;;;;;;7.25;76.48;99798.34;1783319;80;21298;-53
2021/04/21 04:02:34;;;;;;;16.37;13.43;;;;;;;7.26;76.29;99802.73;1783309;80;21022;-53
2021/04/21 04:05:05;;;;;;;18.42;13.62;;;;;;;7.29;76.20;99811.46;1704802;80;21030;-53
2021/04/21 04:07:36;;;;;;;18.95;14.20;;;;;;;7.30;76.16;99804.36;1783463;80;22118;-55
2021/04/21 04:10:06;;;;;;;19.77;14.25;;;;;;;7.33;76.07;99808.48;1782235;80;21037;-53
2021/04/21 04:12:33;;;;;;;20.50;13.45;;;;;;;7.34;76.11;99811.50;1753545;80;21021;-54
2021/04/21 04:15:02;;;;;;;20.85;13.05;;;;;;;7.37;76.04;99820.52;1753304;80;21749;-54
2021/04/21 04:17:30;;;;;;;17.57;12.73;;;;;;;7.42;75.74;99820.00;1783279;80;20989;-54
2021/04/21 04:19:58;;;;;;;20.15;13.32;;;;;;;7.41;75.65;99824.36;1767497;79;21197;-54
2021/04/21 04:22:25;;;;;;;16.75;11.97;;;;;;;7.40;75.75;99826.28;1800478;79;21018;-54
2021/04/21 04:24:56;;;;;;;16.20;13.13;;;;;;;7.44;75.64;99825.19;1786901;80;21002;-55
2021/04/21 04:27:27;;;;;;;24.92;13.68;;;;;;;7.47;75.50;99833.41;1786898;80;21993;-55
2021/04/21 04:29:56;;;;;;;21.68;13.08;;;;;;;7.49;75.45;99830.69;1786874;80;21026;-54
2021/04/21 04:32:25;;;;;;;15.53;12.88;;;;;;;7.49;75.54;99833.42;1786868;80;21264;-55
2021/04/21 04:34:57;;;;;;;27.50;13.72;;;;;;;7.52;75.34;99834.25;1787038;80;21664;-55
2021/04/21 04:37:26;;;;;;;19.73;14.85;;;;;;;7.54;75.20;99837.52;1786917;78;20988;-55
2021/04/21 04:39:55;;;;;;;27.27;14.53;;;;;;;7.54;75.19;99842.17;1786985;80;21568;-54
2021/04/21 04:42:22;;;;;;;18.92;14.23;;;;;;;7.52;75.22;99842.45;1786901;80;21029;-55
2021/04/21 04:44:50;;;;;;;26.68;13.70;;;;;;;7.54;75.35;99841.63;1787000;80;21342;-54
2021/04/21 04:47:32;;;;;;;19.87;13.30;;;;;;;7.59;75.15;99844.38;1786779;80;21049;-54
2021/04/21 04:50:07;;;;;;;19.55;14.07;;;;;;;7.61;75.20;99846.29;1786862;80;21037;-54
2021/04/21 04:52:40;;;;;;;21.77;15.53;;;;;;;7.67;75.00;99843.03;1786731;80;21635;-54
2021/04/21 04:55:10;;;;;;;24.90;16.50;;;;;;;7.71;74.76;99841.41;1786881;80;21372;-55
2021/04/21 04:57:40;;;;;;;41.28;17.27;;;;;;;7.75;74.90;99845.81;1786881;80;21352;-54
2021/04/21 05:00:10;;;;;;;30.15;15.32;;;;;;;7.82;74.79;99846.93;1786953;80;21628;-54
2021/04/21 05:02:42;;;;;;;33.65;15.63;;;;;;;7.90;74.52;99846.38;1786935;80;21013;-54
2021/04/21 05:05:11;;;;;;;20.50;14.65;;;;;;;7.98;74.40;99845.05;1786729;80;21103;-55
2021/04/21 05:07:46;;;;;;;21.80;14.47;;;;;;;8.04;74.13;99849.43;1786943;80;21087;-54
2021/04/21 05:10:24;;;;;;;22.37;13.38;;;;;;;8.03;73.85;99853.25;1786771;80;21130;-54
2021/04/21 05:12:55;;;;;;;26.82;15.98;;;;;;;8.05;73.81;99850.52;1786882;80;21017;-55
2021/04/21 05:15:52;;;;;;;21.35;16.50;;;;;;;8.09;73.62;99855.73;1786852;80;21591;-54
2021/04/21 05:18:34;;;;;;;19.75;14.13;;;;;;;8.17;73.33;99857.09;1762218;80;21089;-54
2021/04/21 05:21:11;;;;;;;21.42;16.27;;;;;;;8.26;72.94;99862.33;1732997;82;21045;-54
2021/04/21 05:24:34;;;;;;;20.37;15.65;;;;;;;8.30;72.56;99862.59;1738434;82;21669;-54
2021/04/21 05:27:40;;;;;;;29.87;16.32;;;;;;;8.27;72.69;99868.08;1741291;82;20997;-54
2021/04/21 05:30:45;;;;;;;24.02;18.67;;;;;;;8.36;72.39;99870.26;1741379;82;20981;-53
2021/04/21 05:33:55;;;;;;;18.15;14.68;;;;;;;8.42;72.07;99870.00;1733405;82;21064;-53
2021/04/21 05:36:54;;;;;;;19.20;14.63;;;;;;;8.47;72.18;99877.41;1732788;81;21073;-56
2021/04/21 05:39:44;;;;;;;20.10;13.50;;;;;;;8.63;71.60;99882.34;1733368;82;21389;-54
2021/04/21 05:42:39;;;;;;;21.52;15.58;;;;;;;8.65;71.15;99882.91;1741354;82;21013;-54
2021/04/21 05:45:45;;;;;;;21.55;15.93;;;;;;;8.65;71.16;99885.09;1741381;82;21080;-54
2021/04/21 05:48:53;;;;;;;21.87;14.90;;;;;;;8.73;70.75;99889.73;1733410;82;21052;-54
2021/04/21 05:51:32;;;;;;;27.17;19.12;;;;;;;8.68;70.53;99891.12;1733342;82;21052;-54
2021/04/21 05:54:08;;;;;;;27.70;15.88;;;;;;;8.57;70.52;99896.58;1740483;82;21357;-55
2021/04/21 05:57:44;;;;;;;20.82;14.98;;;;;;;8.58;70.63;99900.16;1741189;82;21123;-55
2021/04/21 06:00:56;;;;;;;22.37;16.48;;;;;;;8.61;70.67;99899.05;1733413;82;21005;-55
2021/04/21 06:03:26;;;;;;;21.73;15.90;;;;;;;8.67;70.57;99903.97;1732667;82;21009;-55
2021/04/21 06:06:03;;;;;;;31.52;16.02;;;;;;;8.69;70.43;99907.80;1732657;82;21106;-55
2021/04/21 06:08:32;;;;;;;21.25;14.28;;;;;;;8.73;70.45;99907.01;1732383;82;21381;-53
2021/04/21 06:11:00;;;;;;;25.30;15.60;;;;;;;8.81;70.38;99906.99;1740836;82;21666;-53
2021/04/21 06:13:32;;;;;;;22.75;14.87;;;;;;;8.87;70.34;99901.78;1732943;82;21060;-53
2021/04/21 06:15:59;;;;;;;21.70;15.15;;;;;;;9.00;70.28;99911.36;1732913;82;21080;-53
2021/04/21 06:18:27;;;;;;;18.92;14.78;;;;;;;9.06;69.99;99903.95;1728516;81;21007;-54
2021/04/21 06:20:55;;;;;;;19.57;12.82;;;;;;;9.12;69.59;99917.37;1728507;80;21232;-54
2021/04/21 06:23:27;;;;;;;29.15;16.25;;;;;;;9.21;68.93;99914.89;1723091;82;21016;-53
2021/04/21 06:26:00;;;;;;;24.57;14.68;;;;;;;9.21;68.38;99911.34;1718607;82;20997;-53
2021/04/21 06:28:28;;;;;;;24.18;15.40;;;;;;;9.16;68.20;99913.55;1720388;82;20960;-53
2021/04/21 06:31:11;;;;;;;21.42;14.50;;;;;;;9.14;68.39;99915.73;1723999;82;20988;-54
2021/04/21 06:33:43;;;;;;;22.40;14.33;;;;;;;9.14;68.19;99915.73;1727061;80;21756;-53
2021/04/21 06:36:12;;;;;;;25.02;15.25;;;;;;;9.11;68.56;99910.80;1734289;82;21000;-53
2021/04/21 06:38:41;;;;;;;23.65;15.18;;;;;;;9.20;68.41;99911.88;1733234;82;21611;-53
2021/04/21 06:41:09;;;;;;;19.77;15.30;;;;;;;9.27;68.24;99914.34;1721961;80;21008;-53
2021/04/21 06:43:37;;;;;;;20.97;14.70;;;;;;;9.31;68.11;99914.87;1723962;82;21017;-54
2021/04/21 06:46:10;;;;;;;25.60;15.13;;;;;;;9.33;67.78;99918.70;1719700;82;21365;-54
2021/04/21 06:48:39;;;;;;;31.60;15.98;;;;;;;9.37;67.76;99921.72;1720234;82;20988;-54
2021/04/21 06:51:16;;;;;;;17.67;13.78;;;;;;;9.43;67.67;99922.81;1723089;82;21013;-52
2021/04/21 06:53:46;;;;;;;24.82;14.55;;;;;;;9.55;67.63;99923.87;1726956;80;20969;-54
2021/04/21 06:56:15;;;;;;;21.15;14.45;;;;;;;9.67;67.17;99925.76;1730812;82;21518;-53
2021/04/21 06:58:43;;;;;;;20.77;15.00;;;;;;;9.75;66.83;99929.02;1715797;82;21214;-53
2021/04/21 07:01:13;;;;;;;28.92;15.30;;;;;;;9.83;66.56;99935.27;1725631;82;21012;-52
2021/04/21 07:03:42;;;;;;;17.37;13.98;;;;;;;9.89;66.49;99927.84;1734980;82;20991;-54
2021/04/21 07:06:13;;;;;;;22.17;13.35;;;;;;;9.95;66.13;99928.92;1729317;82;21022;-54
2021/04/21 07:08:42;;;;;;;24.07;13.45;;;;;;;10.00;65.90;99937.14;1720394;82;21532;-54
2021/04/21 07:11:12;;;;;;;17.60;11.78;;;;;;;10.07;65.38;99937.38;1744938;81;21197;-55
2021/04/21 07:13:47;;;;;;;20.00;12.33;;;;;;;10.10;64.74;99928.05;1742998;81;21988;-55
2021/04/21 07:16:21;;;;;;;18.48;12.37;;;;;;;10.10;64.95;99934.91;1729710;82;21011;-54
2021/04/21 07:18:54;;;;;;;20.85;12.07;;;;;;;10.19;64.86;99940.06;1732311;82;21622;-54
2021/04/21 07:21:22;;;;;;;19.07;13.03;;;;;;;10.26;64.32;99943.03;1772410;79;21089;-55
2021/04/21 07:23:52;;;;;;;16.48;12.78;;;;;;;10.26;64.31;99943.88;1776897;80;21372;-52
2021/04/21 07:26:28;;;;;;;18.50;11.97;;;;;;;10.28;63.49;99941.65;1774666;79;21720;-54
2021/04/21 07:28:56;;;;;;;;;;;;;;;10.24;64.02;99945.25;1745111;80;21580;-54
2021/04/21 07:31:23;;;;;;;23.90;12.33;;;;;;;10.34;64.14;99947.40;1773586;80;20179;-55
2021/04/21 07:33:50;;;;;;;21.75;12.23;;;;;;;10.50;64.08;99952.80;1729927;80;21007;-55
2021/04/21 07:36:22;;;;;;;16.52;11.40;;;;;;;10.63;63.34;99950.81;1732388;82;21206;-54
2021/04/21 07:38:56;;;;;;;13.98;9.70;;;;;;;10.68;62.81;99956.81;1723309;81;21750;-54
2021/04/21 07:41:48;;;;;;;17.90;10.85;;;;;;;10.71;62.11;99955.67;1725792;81;21044;-56
2021/04/21 07:44:37;;;;;;;13.78;9.58;;;;;;;10.80;61.70;99956.45;1717669;82;20978;-54
2021/04/21 07:47:11;;;;;;;18.27;10.78;;;;;;;10.89;61.09;99967.11;1719102;82;21059;-54
2021/04/21 07:49:56;;;;;;;23.90;10.78;;;;;;;10.94;61.17;99958.80;1716475;82;21101;-55
2021/04/21 07:52:34;;;;;;;22.15;11.22;;;;;;;10.99;60.55;99960.69;1709780;81;21093;-55
2021/04/21 07:55:17;;;;;;;17.77;10.70;;;;;;;11.06;60.48;99962.01;1722360;80;21734;-53
2021/04/21 07:57:58;;;;;;;17.55;13.30;;;;;;;11.20;59.87;99964.08;1718875;80;22225;-54
2021/04/21 08:00:32;;;;;;;17.30;9.33;;;;;;;11.38;59.04;99964.73;1720874;82;21020;-54
2021/04/21 08:03:03;;;;;;;17.32;9.90;;;;;;;11.40;58.17;99962.53;1777030;79;21350;-55
2021/04/21 08:05:34;;;;;;;23.00;9.73;;;;;;;11.40;58.58;99965.28;1776349;79;21002;-52
2021/04/21 08:08:07;;;;;;;14.18;8.50;;;;;;;11.47;58.17;99969.04;1745035;80;21004;-56
2021/04/21 08:10:39;;;;;;;13.80;8.55;;;;;;;11.55;57.37;99973.11;1773164;79;21003;-55
2021/04/21 08:13:08;;;;;;;11.15;8.30;;;;;;;11.62;56.86;99974.95;1745785;80;21700;-54
2021/04/21 08:18:15;;;;;;;13.30;7.50;;;;;;;11.82;56.03;99981.36;1853329;75;22490;-54
2021/04/21 08:20:52;;;;;;;11.10;7.83;;;;;;;11.80;55.10;99983.56;1834555;76;21052;-54
2021/04/21 08:23:33;;;;;;;15.08;7.80;;;;;;;11.80;55.44;99981.62;1829086;76;21316;-54
2021/04/21 08:26:06;;;;;;;13.60;8.43;;;;;;;11.91;54.99;99975.45;1824855;77;20977;-54
2021/04/21 08:28:36;;;;;;;14.63;9.80;;;;;;;12.05;54.54;99979.73;1829458;77;20959;-52
2021/04/21 08:31:03;;;;;;;17.77;9.65;;;;;;;12.25;54.63;99977.28;1830797;76;21176;-54
2021/04/21 08:33:31;;;;;;;25.70;14.35;;;;;;;12.45;54.18;99979.73;1831902;76;21010;-54
2021/04/21 08:35:58;;;;;;;16.25;8.53;;;;;;;12.63;54.42;99974.52;1803679;76;21190;-55
2021/04/21 08:38:25;;;;;;;16.80;8.48;;;;;;;12.77;53.14;99977.36;1797537;78;20997;-54
2021/04/21 08:40:53;;;;;;;18.12;8.63;;;;;;;12.72;51.43;99982.39;1795796;78;21591;-53
2021/04/21 08:43:22;;;;;;;19.70;8.48;;;;;;;12.58;51.71;99977.38;1796783;78;20988;-53
2021/04/21 08:45:52;;;;;;;10.53;8.08;;;;;;;12.49;51.41;99966.75;1802495;78;20993;-55
2021/04/21 08:48:19;;;;;;;12.28;7.20;;;;;;;12.35;51.42;99984.02;1799888;78;21119;-55
2021/04/21 08:50:46;;;;;;;8.45;6.47;;;;;;;12.24;51.25;99985.27;1769104;78;20982;-55
2021/04/21 08:53:14;;;;;;;12.10;6.58;;;;;;;11.99;51.55;99971.25;1799580;78;20962;-55
2021/04/21 08:55:43;;;;;;;13.25;7.10;;;;;;;11.91;52.26;99969.38;1798975;78;21580;-53
2021/04/21 08:58:11;;;;;;;15.35;10.80;;;;;;;11.92;52.45;99975.16;1802700;78;21460;-55
2021/04/21 09:00:40;;;;;;;15.20;7.37;;;;;;;11.89;52.99;99981.83;1797832;78;21077;-55
2021/04/21 09:03:08;;;;;;;13.58;7.15;;;;;;;11.82;53.40;99984.11;1799635;78;21055;-54
2021/04/21 09:05:35;;;;;;;12.80;7.67;;;;;;;11.78;54.02;99989.92;1800733;78;20965;-54
2021/04/21 09:08:03;;;;;;;15.28;8.40;;;;;;;11.69;54.90;99984.22;1804391;78;20958;-52
2021/04/21 09:10:30;;;;;;;10.80;7.78;;;;;;;11.78;55.48;99987.17;1797673;78;21599;-55
2021/04/21 09:12:58;;;;;;;10.18;7.33;;;;;;;12.04;55.46;99994.03;1796062;78;21206;-53
2021/04/21 09:15:26;;;;;;;9.35;6.60;;;;;;;12.34;54.88;99992.58;1800765;78;20950;-55
2021/04/21 09:17:57;;;;;;;9.10;6.55;;;;;;;12.57;53.84;99981.23;1795890;78;21488;-54
2021/04/21 09:20:26;;;;;;;9.45;5.40;;;;;;;12.62;53.82;99990.81;1799267;78;21094;-55
2021/04/21 09:23:19;;;;;;;9.40;5.25;;;;;;;12.74;51.87;99991.73;1799319;78;21477;-55
2021/04/21 09:25:54;;;;;;;9.38;5.62;;;;;;;12.84;51.32;99974.23;1804190;78;21457;-54
2021/04/21 09:28:22;;;;;;;8.98;5.22;;;;;;;13.06;51.23;99981.31;1797187;78;21009;-54
2021/04/21 09:33:33;;;;;;;9.43;6.30;;;;;;;13.51;50.29;99967.62;1858565;75;22713;-55
2021/04/21 09:36:00;;;;;;;10.13;7.33;;;;;;;13.58;50.86;99973.55;1828560;76;21062;-54
2021/04/21 09:38:29;;;;;;;8.38;6.10;;;;;;;13.97;50.43;99968.09;1832928;76;21432;-55
2021/04/21 09:41:01;;;;;;;17.73;7.00;;;;;;;14.39;49.14;99978.55;1832549;76;21025;-54
2021/04/21 09:43:33;;;;;;;14.05;6.10;;;;;;;14.55;47.89;99993.37;1826954;77;20934;-55
2021/04/21 09:46:04;;;;;;;8.78;5.33;;;;;;;14.67;46.69;99982.64;1827309;77;20961;-55
2021/04/21 09:48:34;;;;;;;8.33;5.78;;;;;;;14.93;46.86;99982.04;1829789;76;20955;-54
2021/04/21 09:51:09;;;;;;;9.68;6.45;;;;;;;15.15;46.28;99975.12;1830184;76;21205;-54
2021/04/21 09:53:48;;;;;;;9.28;4.92;;;;;;;15.13;46.14;99973.25;1810839;78;22670;-54
2021/04/21 09:56:21;;;;;;;15.68;6.28;;;;;;;15.05;45.45;99980.92;1787111;78;20972;-55
2021/04/21 09:58:55;;;;;;;10.65;5.12;;;;;;;15.05;45.37;99979.53;1793226;78;21506;-54
2021/04/21 10:01:32;;;;;;;7.58;5.37;;;;;;;15.05;45.12;99985.06;1788018;78;21021;-54
2021/04/21 10:04:15;;;;;;;10.65;5.80;;;;;;;15.25;44.97;99982.36;1787961;78;21085;-55
2021/04/21 10:06:54;;;;;;;29.63;5.70;;;;;;;15.32;44.48;99979.95;1789892;78;20962;-56
2021/04/21 10:09:39;;;;;;;6.80;4.65;;;;;;;15.42;44.41;99977.49;1784580;78;21473;-54
2021/04/21 10:12:26;;;;;;;7.10;4.90;;;;;;;15.76;43.47;99980.19;1785717;79;21420;-55
2021/04/21 10:15:11;;;;;;;7.78;4.28;;;;;;;15.96;42.65;99972.45;1763659;79;20950;-55
2021/04/21 10:17:43;;;;;;;7.30;5.17;;;;;;;15.91;41.48;99984.50;1784333;78;21125;-55
2021/04/21 10:20:15;;;;;;;8.33;5.05;;;;;;;15.65;41.93;99971.34;1784246;78;20974;-55
2021/04/21 10:22:45;;;;;;;7.55;4.28;;;;;;;15.55;42.29;99969.66;1749512;79;21589;-55
2021/04/21 10:25:15;;;;;;;12.98;4.42;;;;;;;15.53;42.08;99974.70;1752471;79;21404;-55
2021/04/21 10:27:42;;;;;;;7.40;4.83;;;;;;;15.45;41.96;99981.00;1718486;82;21023;-55
2021/04/21 10:30:11;;;;;;;5.65;4.28;;;;;;;15.31;41.75;99970.02;1749599;80;20975;-57
2021/04/21 10:32:39;;;;;;;9.53;4.85;;;;;;;15.09;42.12;99966.72;1752133;79;21022;-56
2021/04/21 10:35:07;;;;;;;8.80;5.15;;;;;;;15.00;43.04;99969.42;1719389;82;21509;-56
2021/04/21 10:37:36;;;;;;;10.98;4.42;;;;;;;15.08;43.41;99969.22;1743155;81;21190;-56
2021/04/21 10:40:05;;;;;;;7.58;4.55;;;;;;;15.28;42.77;99976.77;1747736;81;21291;-56
2021/04/21 10:42:50;;;;;;;9.35;4.92;;;;;;;15.25;42.40;99969.91;1748427;81;21001;-54
2021/04/21 10:45:21;;;;;;;9.45;4.72;;;;;;;15.28;42.41;99974.00;1736202;81;20947;-53
2021/04/21 10:47:51;;;;;;;12.35;5.70;;;;;;;15.14;43.87;99983.16;1747432;81;21038;-55
2021/04/21 10:50:44;;;;;;;27.60;8.68;;;;;;;14.60;45.42;99987.17;1751057;81;21726;-56
2021/04/21 10:53:38;;;;;;;10.48;5.58;;;;;;;14.12;46.85;99987.69;1724096;81;21021;-57
2021/04/21 10:56:22;;;;;;;14.35;6.28;;;;;;;13.85;47.89;99996.77;1713348;82;21126;-57
2021/04/21 10:58:53;;;;;;;15.10;5.40;;;;;;;13.48;49.11;99993.30;1718662;82;20954;-56
2021/04/21 11:01:37;;;;;;;10.88;5.55;;;;;;;13.33;50.10;99986.64;1721209;82;21065;-56
2021/04/21 11:04:06;;;;;;;16.87;5.78;;;;;;;13.58;50.28;99990.92;1719125;82;22310;-55
2021/04/21 11:06:47;;;;;;;9.23;5.42;;;;;;;14.09;49.67;99994.64;1713590;82;21046;-56
2021/04/21 11:09:16;;;;;;;15.90;5.67;;;;;;;14.52;48.96;99999.80;1722038;82;21018;-55
2021/04/21 11:11:48;;;;;;;9.05;5.37;;;;;;;15.09;48.14;99997.14;1717341;82;20994;-55
2021/04/21 11:14:21;;;;;;;6.72;4.05;;;;;;;15.55;46.53;100005.64;1713922;82;20994;-55
2021/04/21 11:16:48;;;;;;;6.55;5.00;;;;;;;15.83;45.03;99988.88;1702203;82;21395;-55
2021/04/21 11:19:23;;;;;;;10.32;5.03;;;;;;;16.10;44.54;99992.55;1680457;82;21009;-53
2021/04/21 11:22:28;;;;;;;8.83;4.70;;;;;;;16.36;43.84;99984.86;1720584;82;21582;-54
2021/04/21 11:25:27;;;;;;;9.58;5.58;;;;;;;16.71;42.33;99982.95;1704772;82;21484;-54
2021/04/21 11:27:55;;;;;;;11.90;5.00;;;;;;;17.09;40.79;99984.30;1759091;80;21057;-54
2021/04/21 11:30:39;;;;;;;6.95;3.80;;;;;;;17.24;40.79;99978.21;1758835;80;21354;-54
2021/04/21 11:33:09;;;;;;;;;;;;;;;17.49;39.80;99977.11;1758008;80;21564;-54
2021/04/21 11:35:36;;;;;;;7.62;4.17;;;;;;;17.78;39.09;99975.54;1762372;80;20154;-54
2021/04/21 11:38:04;;;;;;;6.42;4.15;;;;;;;18.00;38.55;99983.39;1763998;79;20974;-55
2021/04/21 11:40:33;;;;;;;7.95;4.30;;;;;;;18.11;38.09;99974.92;1754942;80;21517;-52
2021/04/21 11:43:16;;;;;;;7.75;3.98;;;;;;;18.25;38.11;99969.93;1758775;80;21372;-53
2021/04/21 11:45:46;;;;;;;6.60;4.25;;;;;;;18.74;37.52;99968.02;1761840;80;21306;-55
2021/04/21 11:48:17;;;;;;;6.50;3.22;;;;;;;18.83;36.62;99980.47;1751119;80;21565;-53
2021/04/21 11:50:48;;;;;;;6.97;3.60;;;;;;;18.57;36.50;99967.58;1757646;80;20959;-53
2021/04/21 11:53:20;;;;;;;5.37;3.80;;;;;;;18.38;37.03;99982.54;1776392;79;21032;-53
2021/04/21 11:55:59;;;;;;;5.50;3.70;;;;;;;17.95;36.37;99971.31;1784687;78;22216;-54
2021/04/21 11:58:37;;;;;;;7.10;5.08;;;;;;;17.42;37.77;99974.03;1754132;80;21179;-55
2021/04/21 12:01:07;;;;;;;15.95;4.00;;;;;;;17.24;37.92;99974.63;1755965;80;20971;-54
2021/04/21 12:03:40;;;;;;;5.50;4.10;;;;;;;16.93;38.54;99972.86;1753950;80;20991;-55
2021/04/21 12:06:16;;;;;;;10.38;4.20;;;;;;;16.79;38.87;99969.41;1724026;82;20971;-54
2021/04/21 12:08:49;;;;;;;14.20;6.47;;;;;;;16.87;39.06;99956.92;1750981;80;21430;-55
2021/04/21 12:11:25;;;;;;;8.13;4.17;;;;;;;16.95;38.97;99958.66;1717194;81;21585;-55
2021/04/21 12:13:53;;;;;;;15.15;4.72;;;;;;;17.20;38.69;99966.13;1726798;81;21035;-55
2021/04/21 12:16:28;;;;;;;7.67;4.70;;;;;;;17.40;38.71;99963.81;1782566;79;20970;-54
2021/04/21 12:18:59;;;;;;;9.60;4.45;;;;;;;17.84;38.54;99960.31;1778932;78;20919;-55